sensor_id;sensor_type;location;lat;lon;timestamp;P1;durP1;ratioP1;P2;durP2;ratioP2
12972;SDS011;6551;51.056;9.466;2023-04-29T00:02:08;3.20;;;2.90;;
12972;SDS011;6551;51.056;9.466;2023-04-29T00:04:35;3.53;;;2.77;;
12972;SDS011;6551;51.056;9.466;2023-04-29T00:07:01;3.97;;;1.93;;
12972;SDS011;6551;51.056;9.466;2023-04-29T00:09:28;3.10;;;2.80;;
12972;SDS011;6551;51.056;9.466;2023-04-29T00:11:53;3.40;;;3.10;;
12972;SDS011;6551;51.056;9.466;2023-04-29T00:14:20;2.77;;;2.57;;
12972;SDS011;6551;51.056;9.466;2023-04-29T00:16:46;4.10;;;3.03;;
12972;SDS011;6551;51.056;9.466;2023-04-29T00:19:11;3.70;;;3.17;;
12972;SDS011;6551;51.056;9.466;2023-04-29T00:21:37;5.20;;;3.37;;
12972;SDS011;6551;51.056;9.466;2023-04-29T00:24:03;5.00;;;3.37;;
12972;SDS011;6551;51.056;9.466;2023-04-29T00:26:29;5.80;;;3.43;;
12972;SDS011;6551;51.056;9.466;2023-04-29T00:28:56;5.13;;;3.80;;
12972;SDS011;6551;51.056;9.466;2023-04-29T00:31:23;3.60;;;3.30;;
12972;SDS011;6551;51.056;9.466;2023-04-29T00:33:49;3.90;;;3.40;;
12972;SDS011;6551;51.056;9.466;2023-04-29T00:36:15;3.63;;;2.93;;
12972;SDS011;6551;51.056;9.466;2023-04-29T00:38:40;6.43;;;3.30;;
12972;SDS011;6551;51.056;9.466;2023-04-29T00:41:06;2.90;;;2.60;;
12972;SDS011;6551;51.056;9.466;2023-04-29T00:43:33;3.77;;;3.40;;
12972;SDS011;6551;51.056;9.466;2023-04-29T00:45:59;5.00;;;3.87;;
12972;SDS011;6551;51.056;9.466;2023-04-29T00:48:24;4.87;;;4.37;;
12972;SDS011;6551;51.056;9.466;2023-04-29T00:50:50;4.00;;;3.50;;
12972;SDS011;6551;51.056;9.466;2023-04-29T00:53:17;4.90;;;4.30;;
12972;SDS011;6551;51.056;9.466;2023-04-29T00:55:45;7.37;;;4.90;;
12972;SDS011;6551;51.056;9.466;2023-04-29T00:58:12;7.33;;;5.97;;
12972;SDS011;6551;51.056;9.466;2023-04-29T01:00:39;4.90;;;4.30;;
12972;SDS011;6551;51.056;9.466;2023-04-29T01:03:05;5.20;;;4.70;;
12972;SDS011;6551;51.056;9.466;2023-04-29T01:05:34;8.37;;;5.13;;
12972;SDS011;6551;51.056;9.466;2023-04-29T01:11:04;5.93;;;4.53;;
12972;SDS011;6551;51.056;9.466;2023-04-29T01:13:45;6.83;;;6.13;;
12972;SDS011;6551;51.056;9.466;2023-04-29T01:16:28;9.50;;;6.47;;
12972;SDS011;6551;51.056;9.466;2023-04-29T01:19:05;6.77;;;5.67;;
12972;SDS011;6551;51.056;9.466;2023-04-29T01:21:50;7.70;;;5.73;;
12972;SDS011;6551;51.056;9.466;2023-04-29T01:24:20;7.17;;;6.27;;
12972;SDS011;6551;51.056;9.466;2023-04-29T01:26:50;7.83;;;5.63;;
12972;SDS011;6551;51.056;9.466;2023-04-29T01:35:32;7.67;;;6.57;;
12972;SDS011;6551;51.056;9.466;2023-04-29T01:41:52;8.43;;;6.93;;
12972;SDS011;6551;51.056;9.466;2023-04-29T01:44:28;7.47;;;6.03;;
12972;SDS011;6551;51.056;9.466;2023-04-29T01:46:58;10.03;;;7.60;;
12972;SDS011;6551;51.056;9.466;2023-04-29T01:49:25;9.67;;;8.30;;
12972;SDS011;6551;51.056;9.466;2023-04-29T01:51:52;8.50;;;7.63;;
12972;SDS011;6551;51.056;9.466;2023-04-29T01:54:20;5.33;;;4.83;;
12972;SDS011;6551;51.056;9.466;2023-04-29T01:56:49;8.40;;;7.17;;
12972;SDS011;6551;51.056;9.466;2023-04-29T01:59:15;7.53;;;6.63;;
12972;SDS011;6551;51.056;9.466;2023-04-29T02:01:41;6.83;;;6.13;;
12972;SDS011;6551;51.056;9.466;2023-04-29T02:04:09;8.40;;;6.40;;
12972;SDS011;6551;51.056;9.466;2023-04-29T02:06:34;8.87;;;7.20;;
12972;SDS011;6551;51.056;9.466;2023-04-29T02:09:00;5.77;;;5.17;;
12972;SDS011;6551;51.056;9.466;2023-04-29T02:11:25;7.13;;;6.43;;
12972;SDS011;6551;51.056;9.466;2023-04-29T02:13:52;6.27;;;5.63;;
12972;SDS011;6551;51.056;9.466;2023-04-29T02:16:20;6.60;;;5.80;;
12972;SDS011;6551;51.056;9.466;2023-04-29T02:18:45;7.87;;;6.67;;
12972;SDS011;6551;51.056;9.466;2023-04-29T02:21:11;6.13;;;5.50;;
12972;SDS011;6551;51.056;9.466;2023-04-29T02:23:36;5.87;;;5.27;;
12972;SDS011;6551;51.056;9.466;2023-04-29T02:26:03;4.20;;;3.80;;
12972;SDS011;6551;51.056;9.466;2023-04-29T02:28:31;4.27;;;3.70;;
12972;SDS011;6551;51.056;9.466;2023-04-29T02:30:59;6.40;;;5.17;;
12972;SDS011;6551;51.056;9.466;2023-04-29T02:33:24;3.90;;;3.23;;
12972;SDS011;6551;51.056;9.466;2023-04-29T02:35:51;7.27;;;6.03;;
12972;SDS011;6551;51.056;9.466;2023-04-29T02:38:17;2.17;;;1.97;;
12972;SDS011;6551;51.056;9.466;2023-04-29T02:40:43;4.00;;;3.37;;
12972;SDS011;6551;51.056;9.466;2023-04-29T02:43:09;5.27;;;3.27;;
12972;SDS011;6551;51.056;9.466;2023-04-29T02:45:37;2.07;;;1.93;;
12972;SDS011;6551;51.056;9.466;2023-04-29T02:48:04;3.50;;;2.37;;
12972;SDS011;6551;51.056;9.466;2023-04-29T02:50:30;3.20;;;2.90;;
12972;SDS011;6551;51.056;9.466;2023-04-29T02:52:58;2.33;;;2.13;;
12972;SDS011;6551;51.056;9.466;2023-04-29T02:55:25;2.80;;;2.60;;
12972;SDS011;6551;51.056;9.466;2023-04-29T02:57:52;1.97;;;1.63;;
12972;SDS011;6551;51.056;9.466;2023-04-29T03:00:18;3.10;;;2.80;;
12972;SDS011;6551;51.056;9.466;2023-04-29T03:02:44;3.73;;;3.43;;
12972;SDS011;6551;51.056;9.466;2023-04-29T03:05:11;2.70;;;2.37;;
12972;SDS011;6551;51.056;9.466;2023-04-29T03:07:37;3.23;;;2.93;;
12972;SDS011;6551;51.056;9.466;2023-04-29T03:10:05;3.83;;;3.53;;
12972;SDS011;6551;51.056;9.466;2023-04-29T03:12:33;4.20;;;3.80;;
12972;SDS011;6551;51.056;9.466;2023-04-29T03:14:59;4.50;;;3.40;;
12972;SDS011;6551;51.056;9.466;2023-04-29T03:17:25;2.77;;;2.57;;
12972;SDS011;6551;51.056;9.466;2023-04-29T03:19:54;1.93;;;1.80;;
12972;SDS011;6551;51.056;9.466;2023-04-29T03:22:21;3.07;;;2.63;;
12972;SDS011;6551;51.056;9.466;2023-04-29T03:24:49;1.67;;;1.33;;
12972;SDS011;6551;51.056;9.466;2023-04-29T03:27:15;3.70;;;3.40;;
12972;SDS011;6551;51.056;9.466;2023-04-29T03:29:43;2.77;;;2.57;;
12972;SDS011;6551;51.056;9.466;2023-04-29T03:32:10;2.37;;;2.17;;
12972;SDS011;6551;51.056;9.466;2023-04-29T03:34:37;4.37;;;3.97;;
12972;SDS011;6551;51.056;9.466;2023-04-29T03:37:03;4.90;;;3.60;;
12972;SDS011;6551;51.056;9.466;2023-04-29T03:39:28;1.53;;;1.40;;
12972;SDS011;6551;51.056;9.466;2023-04-29T03:41:56;2.53;;;2.33;;
12972;SDS011;6551;51.056;9.466;2023-04-29T03:44:25;2.93;;;2.63;;
12972;SDS011;6551;51.056;9.466;2023-04-29T03:46:52;3.80;;;2.67;;
12972;SDS011;6551;51.056;9.466;2023-04-29T03:49:17;3.60;;;3.20;;
12972;SDS011;6551;51.056;9.466;2023-04-29T03:51:43;6.60;;;5.37;;
12972;SDS011;6551;51.056;9.466;2023-04-29T03:54:12;6.57;;;5.57;;
12972;SDS011;6551;51.056;9.466;2023-04-29T03:56:38;3.00;;;2.70;;
12972;SDS011;6551;51.056;9.466;2023-04-29T03:59:05;6.67;;;6.07;;
12972;SDS011;6551;51.056;9.466;2023-04-29T04:01:30;1.50;;;1.40;;
12972;SDS011;6551;51.056;9.466;2023-04-29T04:03:56;6.07;;;5.33;;
12972;SDS011;6551;51.056;9.466;2023-04-29T04:06:22;7.00;;;6.13;;
12972;SDS011;6551;51.056;9.466;2023-04-29T04:08:47;5.03;;;4.40;;
12972;SDS011;6551;51.056;9.466;2023-04-29T04:11:13;3.23;;;1.40;;
12972;SDS011;6551;51.056;9.466;2023-04-29T04:13:42;3.30;;;2.43;;
12972;SDS011;6551;51.056;9.466;2023-04-29T04:16:08;2.90;;;2.60;;
12972;SDS011;6551;51.056;9.466;2023-04-29T04:18:35;2.03;;;1.83;;
12972;SDS011;6551;51.056;9.466;2023-04-29T04:21:06;2.43;;;2.20;;
12972;SDS011;6551;51.056;9.466;2023-04-29T04:23:34;3.80;;;3.20;;
12972;SDS011;6551;51.056;9.466;2023-04-29T04:26:00;6.70;;;6.00;;
12972;SDS011;6551;51.056;9.466;2023-04-29T04:28:26;7.37;;;6.63;;
12972;SDS011;6551;51.056;9.466;2023-04-29T04:30:52;5.97;;;5.30;;
12972;SDS011;6551;51.056;9.466;2023-04-29T04:33:18;7.67;;;6.73;;
12972;SDS011;6551;51.056;9.466;2023-04-29T04:35:45;4.63;;;4.17;;
12972;SDS011;6551;51.056;9.466;2023-04-29T04:38:11;3.93;;;3.53;;
12972;SDS011;6551;51.056;9.466;2023-04-29T04:40:42;4.53;;;3.73;;
12972;SDS011;6551;51.056;9.466;2023-04-29T04:43:08;3.20;;;2.90;;
12972;SDS011;6551;51.056;9.466;2023-04-29T04:45:35;3.43;;;2.97;;
12972;SDS011;6551;51.056;9.466;2023-04-29T04:48:02;6.50;;;5.40;;
12972;SDS011;6551;51.056;9.466;2023-04-29T04:50:29;4.37;;;2.07;;
12972;SDS011;6551;51.056;9.466;2023-04-29T04:52:55;5.40;;;4.60;;
12972;SDS011;6551;51.056;9.466;2023-04-29T04:55:22;2.27;;;1.70;;
12972;SDS011;6551;51.056;9.466;2023-04-29T04:57:48;4.33;;;3.93;;
12972;SDS011;6551;51.056;9.466;2023-04-29T05:00:15;4.90;;;4.40;;
12972;SDS011;6551;51.056;9.466;2023-04-29T05:02:41;5.60;;;4.97;;
12972;SDS011;6551;51.056;9.466;2023-04-29T05:05:07;5.07;;;4.10;;
12972;SDS011;6551;51.056;9.466;2023-04-29T05:07:33;4.40;;;3.47;;
12972;SDS011;6551;51.056;9.466;2023-04-29T05:10:02;7.33;;;5.73;;
12972;SDS011;6551;51.056;9.466;2023-04-29T05:12:30;6.60;;;4.30;;
12972;SDS011;6551;51.056;9.466;2023-04-29T05:14:56;6.87;;;5.67;;
12972;SDS011;6551;51.056;9.466;2023-04-29T05:17:24;3.90;;;3.50;;
12972;SDS011;6551;51.056;9.466;2023-04-29T05:19:50;1.97;;;1.67;;
12972;SDS011;6551;51.056;9.466;2023-04-29T05:22:17;3.77;;;3.47;;
12972;SDS011;6551;51.056;9.466;2023-04-29T05:24:45;6.00;;;4.67;;
12972;SDS011;6551;51.056;9.466;2023-04-29T05:27:12;1.97;;;1.77;;
12972;SDS011;6551;51.056;9.466;2023-04-29T05:29:38;3.37;;;2.97;;
12972;SDS011;6551;51.056;9.466;2023-04-29T05:32:04;4.50;;;4.00;;
12972;SDS011;6551;51.056;9.466;2023-04-29T05:34:30;4.00;;;3.37;;
12972;SDS011;6551;51.056;9.466;2023-04-29T05:36:56;4.23;;;3.70;;
12972;SDS011;6551;51.056;9.466;2023-04-29T05:39:24;2.27;;;1.97;;
12972;SDS011;6551;51.056;9.466;2023-04-29T05:41:51;4.73;;;4.33;;
12972;SDS011;6551;51.056;9.466;2023-04-29T05:44:19;4.17;;;3.70;;
12972;SDS011;6551;51.056;9.466;2023-04-29T05:46:45;5.00;;;4.20;;
12972;SDS011;6551;51.056;9.466;2023-04-29T05:49:12;4.03;;;3.63;;
12972;SDS011;6551;51.056;9.466;2023-04-29T05:51:39;1.53;;;1.17;;
12972;SDS011;6551;51.056;9.466;2023-04-29T05:54:05;2.80;;;2.47;;
12972;SDS011;6551;51.056;9.466;2023-04-29T05:56:31;5.70;;;3.17;;
12972;SDS011;6551;51.056;9.466;2023-04-29T05:58:56;2.90;;;2.60;;
12972;SDS011;6551;51.056;9.466;2023-04-29T06:01:24;2.23;;;2.00;;
12972;SDS011;6551;51.056;9.466;2023-04-29T06:03:49;3.57;;;2.33;;
12972;SDS011;6551;51.056;9.466;2023-04-29T06:06:16;3.33;;;2.70;;
12972;SDS011;6551;51.056;9.466;2023-04-29T06:08:42;3.93;;;3.30;;
12972;SDS011;6551;51.056;9.466;2023-04-29T06:11:09;3.03;;;2.73;;
12972;SDS011;6551;51.056;9.466;2023-04-29T06:13:35;3.07;;;2.77;;
12972;SDS011;6551;51.056;9.466;2023-04-29T06:16:00;4.03;;;2.30;;
12972;SDS011;6551;51.056;9.466;2023-04-29T06:18:26;3.13;;;2.63;;
12972;SDS011;6551;51.056;9.466;2023-04-29T06:20:53;2.73;;;2.43;;
12972;SDS011;6551;51.056;9.466;2023-04-29T06:23:20;2.17;;;1.97;;
12972;SDS011;6551;51.056;9.466;2023-04-29T06:25:46;4.37;;;3.20;;
12972;SDS011;6551;51.056;9.466;2023-04-29T06:28:12;3.73;;;3.33;;
12972;SDS011;6551;51.056;9.466;2023-04-29T06:30:38;3.73;;;3.20;;
12972;SDS011;6551;51.056;9.466;2023-04-29T06:33:04;3.90;;;3.07;;
12972;SDS011;6551;51.056;9.466;2023-04-29T06:35:29;2.90;;;2.40;;
12972;SDS011;6551;51.056;9.466;2023-04-29T06:37:56;1.90;;;1.43;;
12972;SDS011;6551;51.056;9.466;2023-04-29T06:40:22;1.87;;;1.20;;
12972;SDS011;6551;51.056;9.466;2023-04-29T06:42:48;4.00;;;3.10;;
12972;SDS011;6551;51.056;9.466;2023-04-29T06:45:16;5.00;;;3.40;;
12972;SDS011;6551;51.056;9.466;2023-04-29T06:47:41;1.67;;;1.47;;
12972;SDS011;6551;51.056;9.466;2023-04-29T06:50:08;3.50;;;1.83;;
12972;SDS011;6551;51.056;9.466;2023-04-29T06:52:34;2.67;;;2.30;;
12972;SDS011;6551;51.056;9.466;2023-04-29T06:55:00;2.03;;;1.83;;
12972;SDS011;6551;51.056;9.466;2023-04-29T06:57:25;5.30;;;3.73;;
12972;SDS011;6551;51.056;9.466;2023-04-29T06:59:51;3.80;;;2.33;;
12972;SDS011;6551;51.056;9.466;2023-04-29T07:02:18;4.97;;;2.83;;
12972;SDS011;6551;51.056;9.466;2023-04-29T07:04:43;5.90;;;4.70;;
12972;SDS011;6551;51.056;9.466;2023-04-29T07:07:09;5.37;;;4.53;;
12972;SDS011;6551;51.056;9.466;2023-04-29T07:09:36;9.53;;;6.47;;
12972;SDS011;6551;51.056;9.466;2023-04-29T07:12:03;7.43;;;5.47;;
12972;SDS011;6551;51.056;9.466;2023-04-29T07:14:29;6.10;;;4.83;;
12972;SDS011;6551;51.056;9.466;2023-04-29T07:16:55;5.80;;;4.43;;
12972;SDS011;6551;51.056;9.466;2023-04-29T07:19:23;9.17;;;3.70;;
12972;SDS011;6551;51.056;9.466;2023-04-29T07:21:49;7.07;;;5.10;;
12972;SDS011;6551;51.056;9.466;2023-04-29T07:24:15;6.50;;;4.07;;
12972;SDS011;6551;51.056;9.466;2023-04-29T07:26:43;5.10;;;3.90;;
12972;SDS011;6551;51.056;9.466;2023-04-29T07:29:09;13.37;;;9.33;;
12972;SDS011;6551;51.056;9.466;2023-04-29T07:31:37;5.13;;;4.03;;
12972;SDS011;6551;51.056;9.466;2023-04-29T07:34:04;8.70;;;6.67;;
12972;SDS011;6551;51.056;9.466;2023-04-29T07:36:30;5.80;;;4.30;;
12972;SDS011;6551;51.056;9.466;2023-04-29T07:38:58;3.30;;;2.80;;
12972;SDS011;6551;51.056;9.466;2023-04-29T07:41:26;9.37;;;6.90;;
12972;SDS011;6551;51.056;9.466;2023-04-29T07:43:54;8.80;;;6.83;;
12972;SDS011;6551;51.056;9.466;2023-04-29T07:46:21;3.60;;;2.97;;
12972;SDS011;6551;51.056;9.466;2023-04-29T07:48:47;4.70;;;2.33;;
12972;SDS011;6551;51.056;9.466;2023-04-29T07:51:13;4.20;;;3.00;;
12972;SDS011;6551;51.056;9.466;2023-04-29T07:53:39;8.40;;;6.60;;
12972;SDS011;6551;51.056;9.466;2023-04-29T07:56:06;4.50;;;2.73;;
12972;SDS011;6551;51.056;9.466;2023-04-29T07:58:32;6.23;;;4.07;;
12972;SDS011;6551;51.056;9.466;2023-04-29T08:01:05;3.40;;;1.87;;
12972;SDS011;6551;51.056;9.466;2023-04-29T08:03:35;5.97;;;3.97;;
12972;SDS011;6551;51.056;9.466;2023-04-29T08:06:02;7.43;;;5.33;;
12972;SDS011;6551;51.056;9.466;2023-04-29T08:08:30;5.00;;;4.03;;
12972;SDS011;6551;51.056;9.466;2023-04-29T08:10:58;7.03;;;5.10;;
12972;SDS011;6551;51.056;9.466;2023-04-29T08:13:24;4.77;;;4.07;;
12972;SDS011;6551;51.056;9.466;2023-04-29T08:15:50;3.33;;;1.87;;
12972;SDS011;6551;51.056;9.466;2023-04-29T08:18:17;5.37;;;3.90;;
12972;SDS011;6551;51.056;9.466;2023-04-29T08:20:45;6.93;;;5.17;;
12972;SDS011;6551;51.056;9.466;2023-04-29T08:23:13;6.93;;;4.47;;
12972;SDS011;6551;51.056;9.466;2023-04-29T08:25:42;5.03;;;4.17;;
12972;SDS011;6551;51.056;9.466;2023-04-29T08:28:10;4.90;;;4.17;;
12972;SDS011;6551;51.056;9.466;2023-04-29T08:30:37;4.30;;;2.40;;
12972;SDS011;6551;51.056;9.466;2023-04-29T08:33:04;4.60;;;2.63;;
12972;SDS011;6551;51.056;9.466;2023-04-29T08:35:31;6.77;;;4.37;;
12972;SDS011;6551;51.056;9.466;2023-04-29T08:37:56;5.33;;;4.27;;
12972;SDS011;6551;51.056;9.466;2023-04-29T08:40:23;2.60;;;2.37;;
12972;SDS011;6551;51.056;9.466;2023-04-29T08:42:51;4.47;;;3.20;;
12972;SDS011;6551;51.056;9.466;2023-04-29T08:45:23;5.37;;;3.70;;
12972;SDS011;6551;51.056;9.466;2023-04-29T08:47:53;5.10;;;4.37;;
12972;SDS011;6551;51.056;9.466;2023-04-29T08:50:21;4.53;;;3.63;;
12972;SDS011;6551;51.056;9.466;2023-04-29T08:52:49;5.13;;;4.50;;
12972;SDS011;6551;51.056;9.466;2023-04-29T08:55:17;4.20;;;3.60;;
12972;SDS011;6551;51.056;9.466;2023-04-29T08:57:43;3.47;;;2.63;;
12972;SDS011;6551;51.056;9.466;2023-04-29T09:00:16;5.17;;;3.03;;
12972;SDS011;6551;51.056;9.466;2023-04-29T09:02:45;3.80;;;3.03;;
12972;SDS011;6551;51.056;9.466;2023-04-29T09:05:14;3.33;;;2.53;;
12972;SDS011;6551;51.056;9.466;2023-04-29T09:07:41;2.87;;;2.27;;
12972;SDS011;6551;51.056;9.466;2023-04-29T09:10:08;3.30;;;2.73;;
12972;SDS011;6551;51.056;9.466;2023-04-29T09:12:36;2.07;;;1.87;;
12972;SDS011;6551;51.056;9.466;2023-04-29T09:15:02;4.57;;;3.50;;
12972;SDS011;6551;51.056;9.466;2023-04-29T09:17:41;7.03;;;4.60;;
12972;SDS011;6551;51.056;9.466;2023-04-29T09:20:24;3.47;;;2.63;;
12972;SDS011;6551;51.056;9.466;2023-04-29T09:22:55;3.23;;;1.87;;
12972;SDS011;6551;51.056;9.466;2023-04-29T09:25:25;5.97;;;4.70;;
12972;SDS011;6551;51.056;9.466;2023-04-29T09:27:53;5.33;;;4.63;;
12972;SDS011;6551;51.056;9.466;2023-04-29T09:30:21;5.73;;;4.97;;
12972;SDS011;6551;51.056;9.466;2023-04-29T09:33:06;6.13;;;4.87;;
12972;SDS011;6551;51.056;9.466;2023-04-29T09:35:34;6.87;;;5.43;;
12972;SDS011;6551;51.056;9.466;2023-04-29T09:38:11;7.07;;;5.67;;
12972;SDS011;6551;51.056;9.466;2023-04-29T09:40:39;6.87;;;6.10;;
12972;SDS011;6551;51.056;9.466;2023-04-29T09:43:11;7.97;;;5.97;;
12972;SDS011;6551;51.056;9.466;2023-04-29T09:45:41;11.80;;;6.40;;
12972;SDS011;6551;51.056;9.466;2023-04-29T09:48:09;7.57;;;6.07;;
12972;SDS011;6551;51.056;9.466;2023-04-29T09:50:37;9.33;;;6.90;;
12972;SDS011;6551;51.056;9.466;2023-04-29T09:53:05;8.73;;;7.20;;
12972;SDS011;6551;51.056;9.466;2023-04-29T09:55:36;7.97;;;6.87;;
12972;SDS011;6551;51.056;9.466;2023-04-29T09:58:27;10.07;;;7.93;;
12972;SDS011;6551;51.056;9.466;2023-04-29T10:01:04;11.87;;;8.93;;
12972;SDS011;6551;51.056;9.466;2023-04-29T10:03:32;12.47;;;9.37;;
12972;SDS011;6551;51.056;9.466;2023-04-29T10:06:01;10.77;;;7.77;;
12972;SDS011;6551;51.056;9.466;2023-04-29T10:08:31;12.47;;;9.10;;
12972;SDS011;6551;51.056;9.466;2023-04-29T10:10:58;11.43;;;9.57;;
12972;SDS011;6551;51.056;9.466;2023-04-29T10:13:30;8.60;;;7.13;;
12972;SDS011;6551;51.056;9.466;2023-04-29T10:16:15;10.07;;;7.63;;
12972;SDS011;6551;51.056;9.466;2023-04-29T10:18:55;11.70;;;8.67;;
12972;SDS011;6551;51.056;9.466;2023-04-29T10:21:28;13.97;;;8.77;;
12972;SDS011;6551;51.056;9.466;2023-04-29T10:23:58;15.77;;;10.77;;
12972;SDS011;6551;51.056;9.466;2023-04-29T10:26:27;12.90;;;10.40;;
12972;SDS011;6551;51.056;9.466;2023-04-29T10:28:55;13.17;;;10.30;;
12972;SDS011;6551;51.056;9.466;2023-04-29T10:31:21;13.20;;;10.43;;
12972;SDS011;6551;51.056;9.466;2023-04-29T10:33:51;13.07;;;10.80;;
12972;SDS011;6551;51.056;9.466;2023-04-29T10:36:25;12.93;;;10.57;;
12972;SDS011;6551;51.056;9.466;2023-04-29T10:38:56;12.87;;;10.73;;
12972;SDS011;6551;51.056;9.466;2023-04-29T10:41:41;12.43;;;10.37;;
12972;SDS011;6551;51.056;9.466;2023-04-29T10:44:12;13.00;;;10.50;;
12972;SDS011;6551;51.056;9.466;2023-04-29T10:46:40;14.77;;;10.80;;
12972;SDS011;6551;51.056;9.466;2023-04-29T10:49:06;14.53;;;11.30;;
12972;SDS011;6551;51.056;9.466;2023-04-29T10:51:41;14.50;;;11.33;;
12972;SDS011;6551;51.056;9.466;2023-04-29T10:54:14;12.70;;;10.83;;
12972;SDS011;6551;51.056;9.466;2023-04-29T10:56:42;14.37;;;10.80;;
12972;SDS011;6551;51.056;9.466;2023-04-29T10:59:12;15.50;;;11.80;;
12972;SDS011;6551;51.056;9.466;2023-04-29T11:01:44;15.70;;;11.90;;
12972;SDS011;6551;51.056;9.466;2023-04-29T11:04:19;14.87;;;12.87;;
12972;SDS011;6551;51.056;9.466;2023-04-29T11:06:56;18.23;;;12.77;;
12972;SDS011;6551;51.056;9.466;2023-04-29T11:09:26;15.67;;;12.97;;
12972;SDS011;6551;51.056;9.466;2023-04-29T11:11:58;18.50;;;14.60;;
12972;SDS011;6551;51.056;9.466;2023-04-29T11:14:36;17.60;;;13.77;;
12972;SDS011;6551;51.056;9.466;2023-04-29T11:17:14;20.73;;;14.87;;
12972;SDS011;6551;51.056;9.466;2023-04-29T11:19:45;20.07;;;14.70;;
12972;SDS011;6551;51.056;9.466;2023-04-29T11:24:58;21.40;;;15.00;;
12972;SDS011;6551;51.056;9.466;2023-04-29T11:27:33;19.90;;;14.83;;
12972;SDS011;6551;51.056;9.466;2023-04-29T11:30:06;29.03;;;17.00;;
12972;SDS011;6551;51.056;9.466;2023-04-29T11:32:37;19.50;;;14.77;;
12972;SDS011;6551;51.056;9.466;2023-04-29T11:37:42;22.17;;;14.87;;
12972;SDS011;6551;51.056;9.466;2023-04-29T11:40:10;18.87;;;13.97;;
12972;SDS011;6551;51.056;9.466;2023-04-29T11:42:40;19.47;;;14.53;;
12972;SDS011;6551;51.056;9.466;2023-04-29T11:45:12;18.07;;;14.47;;
12972;SDS011;6551;51.056;9.466;2023-04-29T11:47:42;26.30;;;19.50;;
12972;SDS011;6551;51.056;9.466;2023-04-29T11:50:10;16.50;;;13.73;;
12972;SDS011;6551;51.056;9.466;2023-04-29T11:52:37;16.40;;;12.93;;
12972;SDS011;6551;51.056;9.466;2023-04-29T11:55:04;18.27;;;13.27;;
12972;SDS011;6551;51.056;9.466;2023-04-29T11:57:32;17.07;;;13.10;;
12972;SDS011;6551;51.056;9.466;2023-04-29T11:59:58;18.97;;;14.77;;
12972;SDS011;6551;51.056;9.466;2023-04-29T12:02:31;19.57;;;15.13;;
12972;SDS011;6551;51.056;9.466;2023-04-29T12:04:58;22.83;;;18.10;;
12972;SDS011;6551;51.056;9.466;2023-04-29T12:07:31;19.20;;;15.03;;
12972;SDS011;6551;51.056;9.466;2023-04-29T12:09:56;19.97;;;15.00;;
12972;SDS011;6551;51.056;9.466;2023-04-29T12:12:22;16.87;;;13.77;;
12972;SDS011;6551;51.056;9.466;2023-04-29T12:14:49;19.00;;;13.73;;
12972;SDS011;6551;51.056;9.466;2023-04-29T12:17:16;17.73;;;14.57;;
12972;SDS011;6551;51.056;9.466;2023-04-29T12:19:42;16.53;;;14.23;;
12972;SDS011;6551;51.056;9.466;2023-04-29T12:22:08;19.33;;;14.70;;
12972;SDS011;6551;51.056;9.466;2023-04-29T12:24:38;17.70;;;14.23;;
12972;SDS011;6551;51.056;9.466;2023-04-29T12:27:08;17.93;;;14.27;;
12972;SDS011;6551;51.056;9.466;2023-04-29T12:29:36;19.23;;;14.50;;
12972;SDS011;6551;51.056;9.466;2023-04-29T12:32:04;17.57;;;14.33;;
12972;SDS011;6551;51.056;9.466;2023-04-29T12:34:31;22.60;;;15.60;;
12972;SDS011;6551;51.056;9.466;2023-04-29T12:37:00;16.37;;;14.10;;
12972;SDS011;6551;51.056;9.466;2023-04-29T12:39:26;20.20;;;14.80;;
12972;SDS011;6551;51.056;9.466;2023-04-29T12:41:59;19.10;;;14.20;;
12972;SDS011;6551;51.056;9.466;2023-04-29T12:44:35;18.53;;;13.53;;
12972;SDS011;6551;51.056;9.466;2023-04-29T12:47:12;19.93;;;15.30;;
12972;SDS011;6551;51.056;9.466;2023-04-29T12:49:44;19.57;;;15.17;;
12972;SDS011;6551;51.056;9.466;2023-04-29T12:52:13;17.03;;;14.27;;
12972;SDS011;6551;51.056;9.466;2023-04-29T12:54:40;18.40;;;14.83;;
12972;SDS011;6551;51.056;9.466;2023-04-29T12:57:07;15.90;;;13.87;;
12972;SDS011;6551;51.056;9.466;2023-04-29T12:59:33;14.70;;;12.87;;
12972;SDS011;6551;51.056;9.466;2023-04-29T13:02:01;15.30;;;13.13;;
12972;SDS011;6551;51.056;9.466;2023-04-29T13:04:28;15.70;;;13.80;;
12972;SDS011;6551;51.056;9.466;2023-04-29T13:06:53;15.07;;;12.70;;
12972;SDS011;6551;51.056;9.466;2023-04-29T13:09:25;14.33;;;12.03;;
12972;SDS011;6551;51.056;9.466;2023-04-29T13:11:53;14.80;;;12.33;;
12972;SDS011;6551;51.056;9.466;2023-04-29T13:14:20;13.40;;;11.67;;
12972;SDS011;6551;51.056;9.466;2023-04-29T13:16:46;17.40;;;13.90;;
12972;SDS011;6551;51.056;9.466;2023-04-29T13:19:11;15.50;;;12.47;;
12972;SDS011;6551;51.056;9.466;2023-04-29T13:21:39;16.17;;;12.20;;
12972;SDS011;6551;51.056;9.466;2023-04-29T13:24:05;15.67;;;13.37;;
12972;SDS011;6551;51.056;9.466;2023-04-29T13:26:32;15.03;;;12.83;;
12972;SDS011;6551;51.056;9.466;2023-04-29T13:28:58;16.47;;;13.30;;
12972;SDS011;6551;51.056;9.466;2023-04-29T13:31:25;14.93;;;13.03;;
12972;SDS011;6551;51.056;9.466;2023-04-29T13:33:52;14.13;;;12.57;;
12972;SDS011;6551;51.056;9.466;2023-04-29T13:36:19;15.57;;;13.27;;
12972;SDS011;6551;51.056;9.466;2023-04-29T13:38:45;16.40;;;14.23;;
12972;SDS011;6551;51.056;9.466;2023-04-29T13:41:10;18.70;;;15.57;;
12972;SDS011;6551;51.056;9.466;2023-04-29T13:43:38;23.70;;;16.70;;
12972;SDS011;6551;51.056;9.466;2023-04-29T13:46:04;18.57;;;14.50;;
12972;SDS011;6551;51.056;9.466;2023-04-29T13:48:31;23.60;;;16.17;;
12972;SDS011;6551;51.056;9.466;2023-04-29T13:50:56;29.53;;;19.00;;
12972;SDS011;6551;51.056;9.466;2023-04-29T13:53:22;24.73;;;15.90;;
12972;SDS011;6551;51.056;9.466;2023-04-29T13:55:49;24.40;;;17.47;;
12972;SDS011;6551;51.056;9.466;2023-04-29T13:58:14;20.27;;;15.87;;
12972;SDS011;6551;51.056;9.466;2023-04-29T14:00:42;20.43;;;16.33;;
12972;SDS011;6551;51.056;9.466;2023-04-29T14:03:07;19.03;;;15.83;;
12972;SDS011;6551;51.056;9.466;2023-04-29T14:05:33;20.70;;;16.70;;
12972;SDS011;6551;51.056;9.466;2023-04-29T14:08:01;22.13;;;16.77;;
12972;SDS011;6551;51.056;9.466;2023-04-29T14:10:26;16.70;;;13.80;;
12972;SDS011;6551;51.056;9.466;2023-04-29T14:12:52;18.00;;;14.67;;
12972;SDS011;6551;51.056;9.466;2023-04-29T14:15:19;21.00;;;16.87;;
12972;SDS011;6551;51.056;9.466;2023-04-29T14:17:45;21.53;;;17.10;;
12972;SDS011;6551;51.056;9.466;2023-04-29T14:20:11;25.70;;;18.50;;
12972;SDS011;6551;51.056;9.466;2023-04-29T14:22:38;18.67;;;14.73;;
12972;SDS011;6551;51.056;9.466;2023-04-29T14:25:04;16.07;;;13.57;;
12972;SDS011;6551;51.056;9.466;2023-04-29T14:27:32;21.07;;;15.83;;
12972;SDS011;6551;51.056;9.466;2023-04-29T14:29:59;26.07;;;18.83;;
12972;SDS011;6551;51.056;9.466;2023-04-29T14:32:25;22.13;;;15.40;;
12972;SDS011;6551;51.056;9.466;2023-04-29T14:34:50;20.97;;;16.00;;
12972;SDS011;6551;51.056;9.466;2023-04-29T14:37:17;20.00;;;15.20;;
12972;SDS011;6551;51.056;9.466;2023-04-29T14:39:43;24.70;;;15.80;;
12972;SDS011;6551;51.056;9.466;2023-04-29T14:42:09;16.63;;;12.83;;
12972;SDS011;6551;51.056;9.466;2023-04-29T14:44:34;18.33;;;14.30;;
12972;SDS011;6551;51.056;9.466;2023-04-29T14:47:01;20.97;;;15.00;;
12972;SDS011;6551;51.056;9.466;2023-04-29T14:49:29;21.53;;;14.30;;
12972;SDS011;6551;51.056;9.466;2023-04-29T14:51:54;25.60;;;17.97;;
12972;SDS011;6551;51.056;9.466;2023-04-29T14:54:21;20.17;;;14.90;;
12972;SDS011;6551;51.056;9.466;2023-04-29T14:56:48;20.90;;;16.40;;
12972;SDS011;6551;51.056;9.466;2023-04-29T14:59:14;21.80;;;17.33;;
12972;SDS011;6551;51.056;9.466;2023-04-29T15:01:41;14.83;;;12.03;;
12972;SDS011;6551;51.056;9.466;2023-04-29T15:04:07;9.80;;;5.40;;
12972;SDS011;6551;51.056;9.466;2023-04-29T15:06:36;11.87;;;8.50;;
12972;SDS011;6551;51.056;9.466;2023-04-29T15:09:02;8.93;;;6.67;;
12972;SDS011;6551;51.056;9.466;2023-04-29T15:11:29;21.67;;;13.23;;
12972;SDS011;6551;51.056;9.466;2023-04-29T15:13:54;13.87;;;9.57;;
12972;SDS011;6551;51.056;9.466;2023-04-29T15:16:20;9.73;;;7.07;;